Airfield :
LOGIN :

Register | Disclaimer

   EN    FR    IT 

 










Legend :    VFR   Marginal VFR   IFR   Intensive IFR   Very Intensive IFR
Visi :
Ceiling :
>= 8 km
>= 3000ft
5 to 8 km
1000 to 3000 ft
1500m to 5 km
500 to 1000 ft
800 to 1500m
200 to 500 ft
< 800m
< 200 ft
Symbols :   Thunderstorms  Fog  Heavy snow  Heavy precipitations  Wind > 20 kt
SIGMETs :     Misc.  Thunderstorms  Icing  Turbulence  Mountain Waves  Volcanic Ashes







- Airport Elevation : 357 ft
- IATA code : TUF
- Download approach charts


LFOT - Tours

CURRENT METAR :
  • 240800Z AUTO 20009KT 170V230 9999 -RA BKN010/// OVC015/// ///TCU 10/09 Q0998 BECMG SCT030

EXPIRED METARs :
  • 240730Z AUTO 19010KT 9999 -RA OVC008 10/09 Q0998 BECMG SCT030
  • 240700Z AUTO 18008KT 9999 -RA OVC008 10/09 Q0997 TEMPO 24010G20KT 4000 -RA BECMG SCT030
  • 240630Z AUTO 20008KT 9999 -RA BKN008 BKN032 OVC078 10/09 Q0997 TEMPO 4000 -RA BECMG SCT030
  • 240600Z AUTO 21008KT 170V230 9999 -RA BKN010 BKN047 OVC054 10/09 Q0996 TEMPO 4000 -RA
  • 240530Z AUTO 23007KT 9999 BKN011/// BKN016/// BKN046/// ///TCU 10/09 Q0996 TEMPO 4000 -RA BKN012

TAF AMD TAF LFOT
Valid from the 24 at 06:00 until the 25 at 06:00 UTC


240612Z 2406/2506 21010KT 9999 -RA BKN020
PROB40
TEMPO 2406/2408 24010G20KT 4000 -RA BKN008
BECMG 2408/2411 SCT030
PROB40
TEMPO 2410/2419 18015G25KT -SHRA SCT030TCU
TEMPO 2421/2506 -RA SCT040 BKN080
PROB40
TEMPO 2501/2506 21015G25KT 2500 RA BKN012 OVC020
No reported NOTAMs for that airfield.
1 SIGMET reported for the Paris FIR (LFFF) :
 
Severe turbulence
LFFF SIGMET 1 VALID 240700/241100 LFPW
LFFF PARIS FIR/UIR SEV TURB FCST SE OF LINE N4715 E00430 - N4630 E00400 SFC/FL080 STNR INTSF=



MET'MAP, your aeronautical weather chart ! - Copyright ORBIFLY December 2007 - Disclaimer

ORBIFLY MET'MAP TEAM :

Programming & Development : Alexandra Zaïnal
Concept & Development : Baudouin d'Aumeries
Co-Development & Prog : Marc-Olivier Méhu
Technical & hardware support : Manuel Goepfert

Contact : metmap@orbifly.com




SOURCES & CREDITS :

   NOAA